createdAt,value
2018-02-23T00:00:46.656Z,21.02
2018-02-23T00:01:46.930Z,21.02
2018-02-23T00:02:47.189Z,20.92
2018-02-23T00:03:47.429Z,20.92
2018-02-23T00:04:47.703Z,21.06
2018-02-23T00:05:47.954Z,21.02
2018-02-23T00:06:48.220Z,20.92
2018-02-23T00:07:48.484Z,21.02
2018-02-23T00:08:48.747Z,20.93
2018-02-23T00:09:49.004Z,21.03
2018-02-23T00:10:49.269Z,20.95
2018-02-23T00:11:49.538Z,20.96
2018-02-23T00:12:49.807Z,20.95
2018-02-23T00:13:50.083Z,20.95
2018-02-23T00:14:50.341Z,21.05
2018-02-23T00:15:50.607Z,20.93
2018-02-23T00:16:50.871Z,20.99
2018-02-23T00:17:51.244Z,21.02
2018-02-23T00:18:51.396Z,21.00
2018-02-23T00:19:51.660Z,21.00
2018-02-23T00:20:51.925Z,21.02
2018-02-23T00:21:52.195Z,20.95
2018-02-23T00:22:52.445Z,20.95
2018-02-23T00:23:52.717Z,21.05
2018-02-23T00:24:52.976Z,20.92
2018-02-23T00:25:53.241Z,21.02
2018-02-23T00:26:53.515Z,20.95
2018-02-23T00:27:53.762Z,20.96
2018-02-23T00:28:54.022Z,21.03
2018-02-23T00:29:54.293Z,20.99
2018-02-23T00:30:54.578Z,20.93
2018-02-23T00:31:54.821Z,20.88
2018-02-23T00:32:55.088Z,21.03
2018-02-23T00:33:55.367Z,20.96
2018-02-23T00:34:55.623Z,20.95
2018-02-23T00:35:55.890Z,20.95
2018-02-23T00:36:56.150Z,21.06
2018-02-23T00:37:56.415Z,20.95
2018-02-23T00:38:56.683Z,21.03
2018-02-23T00:39:56.948Z,20.99
2018-02-23T00:40:57.219Z,21.05
2018-02-23T00:41:57.475Z,20.99
2018-02-23T00:42:57.748Z,21.00
2018-02-23T00:43:58.010Z,20.93
2018-02-23T00:44:58.282Z,20.92
2018-02-23T00:45:58.538Z,20.92
2018-02-23T00:46:58.809Z,20.96
2018-02-23T00:47:59.065Z,21.03
2018-02-23T00:48:59.366Z,20.95
2018-02-23T00:49:59.585Z,20.95
2018-02-23T00:50:59.887Z,20.92
2018-02-23T00:52:00.114Z,20.96
2018-02-23T00:53:00.384Z,20.92
2018-02-23T00:54:00.641Z,20.96
2018-02-23T00:55:00.926Z,20.96
2018-02-23T00:56:01.202Z,21.03
2018-02-23T00:57:01.467Z,21.00
2018-02-23T00:58:01.730Z,21.02
2018-02-23T00:59:01.993Z,20.92
2018-02-23T01:00:04.544Z,21.03
2018-02-23T01:01:02.572Z,20.95
2018-02-23T01:02:02.847Z,21.02
2018-02-23T01:03:03.218Z,21.00
2018-02-23T01:04:03.470Z,21.00
2018-02-23T01:05:03.746Z,21.05
2018-02-23T01:06:04.006Z,20.93
2018-02-23T01:07:04.301Z,21.06
2018-02-23T01:08:04.569Z,20.92
2018-02-23T01:09:04.838Z,20.95
2018-02-23T01:10:05.109Z,20.92
2018-02-23T01:11:05.359Z,20.92
2018-02-23T01:12:05.663Z,20.95
2018-02-23T01:13:05.888Z,20.93
2018-02-23T01:14:06.160Z,20.88
2018-02-23T01:15:06.420Z,20.95
2018-02-23T01:16:06.756Z,21.03
2018-02-23T01:17:06.973Z,21.00
2018-02-23T01:18:07.228Z,20.99
2018-02-23T01:19:07.496Z,21.05
2018-02-23T01:20:07.769Z,21.07
2018-02-23T01:21:08.025Z,21.07
2018-02-23T01:22:08.294Z,20.92
2018-02-23T01:23:08.555Z,20.97
2018-02-23T01:24:08.824Z,20.93
2018-02-23T01:25:09.078Z,20.99
2018-02-23T01:26:09.343Z,20.97
2018-02-23T01:27:09.608Z,20.95
2018-02-23T01:28:09.875Z,21.05
2018-02-23T01:29:10.132Z,20.92
2018-02-23T01:30:10.395Z,20.97
2018-02-23T01:31:10.662Z,21.02
2018-02-23T01:32:10.929Z,20.93
2018-02-23T01:33:11.197Z,20.88
2018-02-23T01:34:11.464Z,20.90
2018-02-23T01:35:11.733Z,20.97
2018-02-23T01:36:12.059Z,21.05
2018-02-23T01:37:12.244Z,20.97
2018-02-23T01:38:12.513Z,20.96
2018-02-23T01:39:12.776Z,21.05
2018-02-23T01:40:13.035Z,21.00
2018-02-23T01:41:13.311Z,20.96
2018-02-23T01:42:13.565Z,20.93
2018-02-23T01:43:13.841Z,21.00
2018-02-23T01:44:14.092Z,20.97
2018-02-23T01:45:14.363Z,20.95
2018-02-23T01:46:14.614Z,20.93
2018-02-23T01:47:14.880Z,20.93
2018-02-23T01:48:15.142Z,21.05
2018-02-23T01:49:15.417Z,21.03
2018-02-23T01:50:15.671Z,20.96
2018-02-23T01:51:15.937Z,20.90
2018-02-23T01:52:16.197Z,20.93
2018-02-23T01:53:16.470Z,20.93
2018-02-23T01:54:16.722Z,21.00
2018-02-23T01:55:16.993Z,20.99
2018-02-23T01:56:17.242Z,21.03
2018-02-23T01:57:17.515Z,20.95
2018-02-23T01:58:17.774Z,20.95
2018-02-23T01:59:18.042Z,20.93
2018-02-23T02:00:18.308Z,20.88
2018-02-23T02:01:18.565Z,21.03
2018-02-23T02:02:18.823Z,20.95
2018-02-23T02:03:19.092Z,20.99
2018-02-23T02:04:19.347Z,20.95
2018-02-23T02:05:19.617Z,20.97
2018-02-23T02:06:19.874Z,20.95
2018-02-23T02:07:20.145Z,20.96
2018-02-23T02:08:20.397Z,20.93
2018-02-23T02:09:20.647Z,20.92
2018-02-23T02:10:20.912Z,20.99
2018-02-23T02:11:21.194Z,20.97
2018-02-23T02:12:21.485Z,20.96
2018-02-23T02:13:21.777Z,20.96
2018-02-23T02:14:22.042Z,20.93
2018-02-23T02:15:22.315Z,20.97
2018-02-23T02:16:22.580Z,20.92
2018-02-23T02:17:22.842Z,20.97
2018-02-23T02:18:23.120Z,20.96
2018-02-23T02:19:23.373Z,20.92
2018-02-23T02:20:23.639Z,21.00
2018-02-23T02:21:23.973Z,20.97
2018-02-23T02:22:24.164Z,20.97
2018-02-23T02:23:24.417Z,20.93
2018-02-23T02:24:24.691Z,20.92
2018-02-23T02:25:24.951Z,20.97
2018-02-23T02:26:25.213Z,20.97
2018-02-23T02:27:25.480Z,21.02
2018-02-23T02:28:25.743Z,20.92
2018-02-23T02:29:26.018Z,20.95
2018-02-23T02:30:26.314Z,20.92
2018-02-23T02:31:26.580Z,20.93
2018-02-23T02:32:26.845Z,20.95
2018-02-23T02:33:27.107Z,20.90
2018-02-23T02:34:27.412Z,20.88
2018-02-23T02:35:27.677Z,20.93
2018-02-23T02:36:27.951Z,20.95
2018-02-23T02:37:28.204Z,20.92
2018-02-23T02:38:28.471Z,20.96
2018-02-23T02:39:28.731Z,20.92
2018-02-23T02:40:28.999Z,20.96
2018-02-23T02:41:29.259Z,21.00
2018-02-23T02:42:29.522Z,21.00
2018-02-23T02:43:29.837Z,20.90
2018-02-23T02:44:30.098Z,21.03
2018-02-23T02:45:30.365Z,20.92
2018-02-23T02:46:30.623Z,20.92
2018-02-23T02:47:30.896Z,20.92
2018-02-23T02:48:31.144Z,20.93
2018-02-23T02:49:31.424Z,20.95
2018-02-23T02:50:31.672Z,21.02
2018-02-23T02:51:31.939Z,21.02
2018-02-23T02:52:32.196Z,20.93
2018-02-23T02:53:32.466Z,20.93
2018-02-23T02:54:32.724Z,20.92
2018-02-23T02:55:32.988Z,20.96
2018-02-23T02:56:33.254Z,20.96
2018-02-23T02:57:33.517Z,20.95
2018-02-23T02:58:33.785Z,20.97
2018-02-23T02:59:34.051Z,20.93
2018-02-23T03:00:34.329Z,20.93
2018-02-23T03:01:34.592Z,20.96
2018-02-23T03:02:34.855Z,20.92
2018-02-23T03:03:35.122Z,20.88
2018-02-23T03:04:35.399Z,20.96
2018-02-23T03:05:35.668Z,20.92
2018-02-23T03:06:35.939Z,20.96
2018-02-23T03:07:36.252Z,20.97
2018-02-23T03:08:36.442Z,20.97
2018-02-23T03:09:36.712Z,21.00
2018-02-23T03:10:36.974Z,20.95
2018-02-23T03:11:37.243Z,20.96
2018-02-23T03:12:37.558Z,20.93
2018-02-23T03:13:37.828Z,20.96
2018-02-23T03:14:38.085Z,20.95
2018-02-23T03:15:38.350Z,20.96
2018-02-23T03:16:38.653Z,20.99
2018-02-23T03:17:38.882Z,21.00
2018-02-23T03:18:39.135Z,20.99
2018-02-23T03:19:39.420Z,20.93
2018-02-23T03:20:39.659Z,20.93
2018-02-23T03:21:39.927Z,20.96
2018-02-23T03:22:40.182Z,20.90
2018-02-23T03:23:40.442Z,21.02
2018-02-23T03:24:40.712Z,20.97
2018-02-23T03:25:40.978Z,21.00
2018-02-23T03:26:41.248Z,21.03
2018-02-23T03:27:41.506Z,20.93
2018-02-23T03:28:41.760Z,20.95
2018-02-23T03:29:42.021Z,20.96
2018-02-23T03:30:42.290Z,20.97
2018-02-23T03:31:42.548Z,20.97
2018-02-23T03:32:42.809Z,20.93
2018-02-23T03:33:43.086Z,20.95
2018-02-23T03:34:43.334Z,20.93
2018-02-23T03:35:43.603Z,20.97
2018-02-23T03:36:43.868Z,20.93
2018-02-23T03:37:44.134Z,20.93
2018-02-23T03:38:44.388Z,20.88
2018-02-23T03:39:44.659Z,20.95
2018-02-23T03:40:44.919Z,20.97
2018-02-23T03:41:45.183Z,20.96
2018-02-23T03:42:45.443Z,20.93
2018-02-23T03:43:45.709Z,20.93
2018-02-23T03:44:45.977Z,20.93
2018-02-23T03:45:46.242Z,20.92
2018-02-23T03:46:46.513Z,20.97
2018-02-23T03:47:46.768Z,20.95
2018-02-23T03:48:47.041Z,20.95
2018-02-23T03:49:47.306Z,20.95
2018-02-23T03:50:47.577Z,20.96
2018-02-23T03:51:47.830Z,21.00
2018-02-23T03:52:48.102Z,20.95
2018-02-23T03:53:48.367Z,20.93
2018-02-23T03:54:48.616Z,20.92
2018-02-23T03:55:48.878Z,20.90
2018-02-23T03:56:49.144Z,20.99
2018-02-23T03:57:49.406Z,21.00
2018-02-23T03:58:49.679Z,20.93
2018-02-23T03:59:49.933Z,20.93
2018-02-23T04:00:50.202Z,20.90
2018-02-23T04:01:50.450Z,20.96
2018-02-23T04:02:50.708Z,20.97
2018-02-23T04:03:50.969Z,20.95
2018-02-23T04:04:51.236Z,20.92
2018-02-23T04:05:51.503Z,20.96
2018-02-23T04:06:51.770Z,20.93
2018-02-23T04:07:52.028Z,20.95
2018-02-23T04:08:52.306Z,20.99
2018-02-23T04:09:52.569Z,20.96
2018-02-23T04:10:52.831Z,20.92
2018-02-23T04:11:53.097Z,20.93
2018-02-23T04:12:53.357Z,20.93
2018-02-23T04:13:53.639Z,20.92
2018-02-23T04:14:53.896Z,20.93
2018-02-23T04:15:54.161Z,20.95
2018-02-23T04:16:54.440Z,20.93
2018-02-23T04:17:54.690Z,20.92
2018-02-23T04:18:54.979Z,20.93
2018-02-23T04:19:55.248Z,20.96
2018-02-23T04:20:55.504Z,20.97
2018-02-23T04:21:55.775Z,20.97
2018-02-23T04:22:56.035Z,20.95
2018-02-23T04:23:56.299Z,20.95
2018-02-23T04:24:56.555Z,20.93
2018-02-23T04:25:56.824Z,20.95
2018-02-23T04:26:57.083Z,20.88
2018-02-23T04:27:57.350Z,20.97
2018-02-23T04:28:57.609Z,20.92
2018-02-23T04:29:57.878Z,20.92
2018-02-23T04:30:58.134Z,20.95
2018-02-23T04:31:58.402Z,20.90
2018-02-23T04:32:58.664Z,20.92
2018-02-23T04:33:58.934Z,20.95
2018-02-23T04:34:59.188Z,20.97
2018-02-23T04:35:59.454Z,20.95
2018-02-23T04:36:59.714Z,20.95
2018-02-23T04:37:59.979Z,20.87
2018-02-23T04:39:00.240Z,20.95
2018-02-23T04:40:00.506Z,20.92
2018-02-23T04:41:00.781Z,20.90
2018-02-23T04:42:01.045Z,20.97
2018-02-23T04:43:01.322Z,20.97
2018-02-23T04:44:01.601Z,20.95
2018-02-23T04:45:01.984Z,20.96
2018-02-23T04:46:02.125Z,20.95
2018-02-23T04:47:02.367Z,20.97
2018-02-23T04:48:02.635Z,20.95
2018-02-23T04:49:02.901Z,20.96
2018-02-23T04:50:03.166Z,20.97
2018-02-23T04:51:03.424Z,20.96
2018-02-23T04:52:03.687Z,20.96
2018-02-23T04:53:03.948Z,20.96
2018-02-23T04:54:04.229Z,20.95
2018-02-23T04:55:04.472Z,20.99
2018-02-23T04:56:04.794Z,20.99
2018-02-23T04:57:04.991Z,20.95
2018-02-23T04:58:05.255Z,20.95
2018-02-23T04:59:05.517Z,20.96
2018-02-23T05:00:05.872Z,20.97
2018-02-23T05:01:06.040Z,21.00
2018-02-23T05:02:06.306Z,20.97
2018-02-23T05:03:06.570Z,20.95
2018-02-23T05:04:06.837Z,20.90
2018-02-23T05:05:07.097Z,20.95
2018-02-23T05:06:07.363Z,20.97
2018-02-23T05:07:07.628Z,20.93
2018-02-23T05:08:07.892Z,20.95
2018-02-23T05:09:08.154Z,20.93
2018-02-23T05:10:08.419Z,20.93
2018-02-23T05:11:08.681Z,20.92
2018-02-23T05:12:08.961Z,20.97
2018-02-23T05:13:09.202Z,20.97
2018-02-23T05:14:09.471Z,20.97
2018-02-23T05:15:09.729Z,20.95
2018-02-23T05:16:09.994Z,20.92
2018-02-23T05:17:10.260Z,20.95
2018-02-23T05:18:10.525Z,20.92
2018-02-23T05:19:10.781Z,20.93
2018-02-23T05:20:11.054Z,20.95
2018-02-23T05:21:11.372Z,20.93
2018-02-23T05:22:11.624Z,20.97
2018-02-23T05:23:11.892Z,20.97
2018-02-23T05:24:12.150Z,20.97
2018-02-23T05:25:12.414Z,20.93
2018-02-23T05:26:12.681Z,20.97
2018-02-23T05:27:12.966Z,20.88
2018-02-23T05:28:13.195Z,20.92
2018-02-23T05:29:13.460Z,20.96
2018-02-23T05:30:13.724Z,20.95
2018-02-23T05:31:13.994Z,20.92
2018-02-23T05:32:14.248Z,20.92
2018-02-23T05:33:14.506Z,20.95
2018-02-23T05:34:14.766Z,20.96
2018-02-23T05:35:15.032Z,20.92
2018-02-23T05:36:15.296Z,20.97
2018-02-23T05:37:15.555Z,20.93
2018-02-23T05:38:15.819Z,20.92
2018-02-23T05:39:16.100Z,20.95
2018-02-23T05:40:16.347Z,20.95
2018-02-23T05:41:16.624Z,20.92
2018-02-23T05:42:16.872Z,20.88
2018-02-23T05:43:17.149Z,20.95
2018-02-23T05:44:17.400Z,20.95
2018-02-23T05:45:17.680Z,20.88
2018-02-23T05:46:17.931Z,20.92
2018-02-23T05:47:18.195Z,20.95
2018-02-23T05:48:18.463Z,20.93
2018-02-23T05:49:18.721Z,20.96
2018-02-23T05:50:18.980Z,20.93
2018-02-23T05:51:19.246Z,20.95
2018-02-23T05:52:19.515Z,20.93
2018-02-23T05:53:19.776Z,20.97
2018-02-23T05:54:20.038Z,20.96
2018-02-23T05:55:20.319Z,21.00
2018-02-23T05:56:20.567Z,20.96
2018-02-23T05:57:20.831Z,20.99
2018-02-23T05:58:21.109Z,20.92
2018-02-23T05:59:21.361Z,20.92
2018-02-23T06:00:21.641Z,20.96
2018-02-23T06:01:21.894Z,20.93
2018-02-23T06:02:22.161Z,20.92
2018-02-23T06:03:22.417Z,20.96
2018-02-23T06:04:22.686Z,20.92
2018-02-23T06:05:22.946Z,20.99
2018-02-23T06:06:23.219Z,20.93
2018-02-23T06:07:23.470Z,20.92
2018-02-23T06:08:23.737Z,20.92
2018-02-23T06:09:23.996Z,20.96
2018-02-23T06:10:24.263Z,20.90
2018-02-23T06:11:24.520Z,20.99
2018-02-23T06:12:24.789Z,20.95
2018-02-23T06:13:25.046Z,20.95
2018-02-23T06:14:25.314Z,20.93
2018-02-23T06:15:25.572Z,20.96
2018-02-23T06:16:25.839Z,20.96
2018-02-23T06:17:26.090Z,20.95
2018-02-23T06:18:26.376Z,20.95
2018-02-23T06:19:26.667Z,20.95
2018-02-23T06:20:26.897Z,20.92
2018-02-23T06:21:27.172Z,21.00
2018-02-23T06:22:27.456Z,20.95
2018-02-23T06:23:27.701Z,20.96
2018-02-23T06:24:27.973Z,20.96
2018-02-23T06:25:28.228Z,20.97
2018-02-23T06:26:28.499Z,20.96
2018-02-23T06:27:28.748Z,20.99
2018-02-23T06:28:29.006Z,20.90
2018-02-23T06:29:29.278Z,21.03
2018-02-23T06:30:29.547Z,20.97
2018-02-23T06:31:29.805Z,20.96
2018-02-23T06:32:30.081Z,20.96
2018-02-23T06:33:30.336Z,20.96
2018-02-23T06:34:30.603Z,20.95
2018-02-23T06:35:30.862Z,21.00
2018-02-23T06:36:31.132Z,20.93
2018-02-23T06:37:31.392Z,20.92
2018-02-23T06:38:31.664Z,20.90
2018-02-23T06:39:31.925Z,21.05
2018-02-23T06:40:32.191Z,20.95
2018-02-23T06:41:32.453Z,20.93
2018-02-23T06:42:32.727Z,21.05
2018-02-23T06:43:32.989Z,20.92
2018-02-23T06:44:33.244Z,21.02
2018-02-23T06:45:33.506Z,21.05
2018-02-23T06:46:33.767Z,20.93
2018-02-23T06:47:34.039Z,20.92
2018-02-23T06:48:34.296Z,20.97
2018-02-23T06:49:34.568Z,20.93
2018-02-23T06:50:34.826Z,20.95
2018-02-23T06:51:35.091Z,20.99
2018-02-23T06:52:35.348Z,20.92
2018-02-23T06:53:35.617Z,20.96
2018-02-23T06:54:35.875Z,20.96
2018-02-23T06:55:36.143Z,21.02
2018-02-23T06:56:36.401Z,21.03
2018-02-23T06:57:36.679Z,20.95
2018-02-23T06:58:36.948Z,20.96
2018-02-23T06:59:37.212Z,20.93
2018-02-23T07:00:37.477Z,21.00
2018-02-23T07:01:37.739Z,20.92
2018-02-23T07:02:38.001Z,20.95
2018-02-23T07:03:38.258Z,20.92
2018-02-23T07:04:38.601Z,21.00
2018-02-23T07:05:38.819Z,20.95
2018-02-23T07:06:39.118Z,20.99
2018-02-23T07:07:39.379Z,20.93
2018-02-23T07:08:39.664Z,20.92
2018-02-23T07:09:39.940Z,21.00
2018-02-23T07:10:40.207Z,21.06
2018-02-23T07:11:40.463Z,21.09
2018-02-23T07:12:40.772Z,20.99
2018-02-23T07:13:41.019Z,20.95
2018-02-23T07:14:41.293Z,21.06
2018-02-23T07:15:41.545Z,21.00
2018-02-23T07:16:41.849Z,20.95
2018-02-23T07:17:42.094Z,20.92
2018-02-23T07:18:42.799Z,21.05
2018-02-23T07:19:42.635Z,21.00
2018-02-23T07:20:42.903Z,21.05
2018-02-23T07:21:43.158Z,21.03
2018-02-23T07:22:43.437Z,21.05
2018-02-23T07:23:43.681Z,21.03
2018-02-23T07:24:44.206Z,21.00
2018-02-23T07:25:44.211Z,21.06
2018-02-23T07:26:44.482Z,21.05
2018-02-23T07:27:44.762Z,21.02
2018-02-23T07:28:45.013Z,21.09
2018-02-23T07:29:45.284Z,21.05
2018-02-23T07:30:45.931Z,20.95
2018-02-23T07:31:45.809Z,21.02
2018-02-23T07:32:46.493Z,21.05
2018-02-23T07:33:46.781Z,21.02
2018-02-23T07:34:46.988Z,21.00
2018-02-23T07:35:46.865Z,21.02
2018-02-23T07:36:47.149Z,21.03
2018-02-23T07:37:47.413Z,21.05
2018-02-23T07:38:47.673Z,21.05
2018-02-23T07:39:47.941Z,21.03
2018-02-23T07:40:48.201Z,21.09
2018-02-23T07:41:48.467Z,21.06
2018-02-23T07:42:48.730Z,21.03
2018-02-23T07:43:48.993Z,21.05
2018-02-23T07:44:49.258Z,21.02
2018-02-23T07:45:49.527Z,21.02
2018-02-23T07:46:49.787Z,21.05
2018-02-23T07:47:50.053Z,21.05
2018-02-23T07:48:50.316Z,21.03
2018-02-23T07:49:50.576Z,21.05
2018-02-23T07:50:50.851Z,21.06
2018-02-23T07:51:51.108Z,21.05
2018-02-23T07:52:51.382Z,21.06
2018-02-23T07:53:51.645Z,21.02
2018-02-23T07:54:51.909Z,21.07
2018-02-23T07:55:52.162Z,21.03
2018-02-23T07:56:52.433Z,21.02
2018-02-23T07:57:52.700Z,21.02
2018-02-23T07:58:52.961Z,21.02
2018-02-23T07:59:53.236Z,21.06
2018-02-23T08:00:53.505Z,21.03
2018-02-23T08:01:53.769Z,21.02
2018-02-23T08:02:54.044Z,20.96
2018-02-23T08:03:54.296Z,21.00
2018-02-23T08:04:54.570Z,21.02
2018-02-23T08:05:54.827Z,21.03
2018-02-23T08:06:55.081Z,21.05
2018-02-23T08:07:55.392Z,21.07
2018-02-23T08:08:55.616Z,21.03
2018-02-23T08:09:55.883Z,20.95
2018-02-23T08:10:56.146Z,21.06
2018-02-23T08:11:56.412Z,21.05
2018-02-23T08:12:56.676Z,21.06
2018-02-23T08:13:56.940Z,21.06
2018-02-23T08:14:57.214Z,21.09
2018-02-23T08:15:57.477Z,21.09
2018-02-23T08:16:57.746Z,21.00
2018-02-23T08:17:58.010Z,21.06
2018-02-23T08:18:58.281Z,21.05
2018-02-23T08:19:58.549Z,21.09
2018-02-23T08:20:58.810Z,21.05
2018-02-23T08:21:59.068Z,21.09
2018-02-23T08:22:59.336Z,21.02
2018-02-23T08:23:59.601Z,21.12
2018-02-23T08:24:59.863Z,21.05
2018-02-23T08:26:00.118Z,21.02
2018-02-23T08:27:00.431Z,21.02
2018-02-23T08:28:00.656Z,21.05
2018-02-23T08:29:00.919Z,21.00
2018-02-23T08:30:01.194Z,21.05
2018-02-23T08:31:01.448Z,21.05
2018-02-23T08:32:01.711Z,21.03
2018-02-23T08:33:01.976Z,21.05
2018-02-23T08:34:02.240Z,21.06
2018-02-23T08:35:02.502Z,21.09
2018-02-23T08:36:02.767Z,21.02
2018-02-23T08:37:03.034Z,21.02
2018-02-23T08:38:03.304Z,21.07
2018-02-23T08:39:03.557Z,20.99
2018-02-23T08:40:03.844Z,21.03
2018-02-23T08:41:04.081Z,21.05
2018-02-23T08:42:04.349Z,21.03
2018-02-23T08:43:04.608Z,21.02
2018-02-23T08:44:04.872Z,21.05
2018-02-23T08:45:05.135Z,21.06
2018-02-23T08:46:05.401Z,21.12
2018-02-23T08:47:05.669Z,21.03
2018-02-23T08:48:05.932Z,21.02
2018-02-23T08:49:06.185Z,21.03
2018-02-23T08:50:06.456Z,21.06
2018-02-23T08:52:38.352Z,21.00
2018-02-23T08:53:38.638Z,21.09
2018-02-23T08:57:10.720Z,21.02
2018-02-23T08:58:10.991Z,21.02
2018-02-23T08:59:11.256Z,21.02
2018-02-23T09:00:11.531Z,21.03
2018-02-23T09:01:11.786Z,21.03
2018-02-23T09:02:12.051Z,21.03
2018-02-23T09:03:12.315Z,21.05
2018-02-23T09:04:12.582Z,21.03
2018-02-23T09:05:12.881Z,21.06
2018-02-23T09:06:13.183Z,21.02
2018-02-23T09:07:13.493Z,21.03
2018-02-23T09:08:13.712Z,21.03
2018-02-23T09:09:13.970Z,21.07
2018-02-23T09:10:14.232Z,21.09
2018-02-23T09:11:14.495Z,21.03
2018-02-23T09:12:14.757Z,21.11
2018-02-23T09:13:15.016Z,21.03
2018-02-23T09:14:15.282Z,21.05
2018-02-23T09:15:15.546Z,21.06
2018-02-23T09:16:15.790Z,21.02
2018-02-23T09:17:16.057Z,21.02
2018-02-23T09:18:17.200Z,21.03
2018-02-23T09:19:16.570Z,21.12
2018-02-23T09:20:16.834Z,21.02
2018-02-23T09:21:17.102Z,21.02
2018-02-23T09:22:17.361Z,21.00
2018-02-23T09:23:17.627Z,21.03
2018-02-23T09:24:17.891Z,21.03
2018-02-23T09:25:18.166Z,21.03
2018-02-23T09:26:18.421Z,21.06
2018-02-23T09:27:18.689Z,21.03
2018-02-23T09:28:18.948Z,21.03
2018-02-23T09:29:19.212Z,21.09
2018-02-23T09:30:19.475Z,21.03
2018-02-23T09:31:19.742Z,21.00
2018-02-23T09:32:20.006Z,21.09
2018-02-23T09:33:20.267Z,21.03
2018-02-23T09:34:20.580Z,21.05
2018-02-23T09:35:20.819Z,20.99
2018-02-23T09:36:21.096Z,21.09
2018-02-23T09:37:21.356Z,21.09
2018-02-23T09:38:21.619Z,21.06
2018-02-23T09:39:21.884Z,21.03
2018-02-23T09:40:22.149Z,21.03
2018-02-23T09:41:22.414Z,21.05
2018-02-23T09:42:22.675Z,21.03
2018-02-23T09:43:23.021Z,21.05
2018-02-23T09:44:23.237Z,20.97
2018-02-23T09:45:23.502Z,21.07
2018-02-23T09:46:23.765Z,21.05
2018-02-23T09:47:24.030Z,21.05
2018-02-23T09:48:24.294Z,21.06
2018-02-23T09:49:24.596Z,21.07
2018-02-23T09:50:24.833Z,21.05
2018-02-23T09:51:25.101Z,21.03
2018-02-23T09:52:25.382Z,21.00
2018-02-23T09:53:25.640Z,21.03
2018-02-23T09:54:25.942Z,21.02
2018-02-23T09:55:26.220Z,21.03
2018-02-23T09:56:26.478Z,21.00
2018-02-23T09:57:26.741Z,21.02
2018-02-23T09:58:27.000Z,21.03
2018-02-23T09:59:27.273Z,21.03
2018-02-23T10:00:27.529Z,21.02
2018-02-23T10:01:27.815Z,21.05
2018-02-23T10:02:28.099Z,21.02
2018-02-23T10:03:28.469Z,20.95
2018-02-23T10:04:28.638Z,21.12
2018-02-23T10:05:28.914Z,21.00
2018-02-23T10:06:29.190Z,21.05
2018-02-23T10:07:29.458Z,21.03
2018-02-23T10:08:29.695Z,21.07
2018-02-23T10:09:29.965Z,21.02
2018-02-23T10:10:30.239Z,21.06
2018-02-23T10:11:30.487Z,21.03
2018-02-23T10:12:30.749Z,20.99
2018-02-23T10:13:31.014Z,21.06
2018-02-23T10:14:31.295Z,21.05
2018-02-23T10:15:31.555Z,21.03
2018-02-23T10:16:31.869Z,21.05
2018-02-23T10:17:32.217Z,21.05
2018-02-23T10:18:32.498Z,21.00
2018-02-23T10:19:32.755Z,21.00
2018-02-23T10:20:33.033Z,21.05
2018-02-23T10:21:33.289Z,21.00
2018-02-23T10:22:33.605Z,21.05
2018-02-23T10:23:33.829Z,21.07
2018-02-23T10:24:34.105Z,20.99
2018-02-23T10:25:34.344Z,21.03
2018-02-23T10:26:34.620Z,21.00
2018-02-23T10:27:34.872Z,21.02
2018-02-23T10:28:35.435Z,21.06
2018-02-23T10:29:35.531Z,21.06
2018-02-23T10:30:35.853Z,21.05
2018-02-23T10:31:36.049Z,21.00
2018-02-23T10:32:36.325Z,21.03
2018-02-23T10:33:36.586Z,21.06
2018-02-23T10:34:37.288Z,21.06
2018-02-23T10:35:37.269Z,21.05
2018-02-23T10:36:37.549Z,21.03
2018-02-23T10:37:37.832Z,21.02
2018-02-23T10:38:38.099Z,21.00
2018-02-23T10:39:38.436Z,21.00
2018-02-23T10:40:38.683Z,21.00
2018-02-23T10:41:38.956Z,21.07
2018-02-23T10:42:39.243Z,21.02
2018-02-23T10:43:39.487Z,21.02
2018-02-23T10:44:40.004Z,21.06
2018-02-23T10:45:40.308Z,21.00
2018-02-23T10:46:40.338Z,20.93
2018-02-23T10:47:40.597Z,21.05
2018-02-23T10:48:40.862Z,20.99
2018-02-23T10:49:41.126Z,21.00
2018-02-23T10:50:41.627Z,21.05
2018-02-23T10:51:42.068Z,21.05
2018-02-23T10:52:42.067Z,20.99
2018-02-23T10:53:42.332Z,21.03
2018-02-23T10:54:42.596Z,20.96
2018-02-23T10:55:42.943Z,21.00
2018-02-23T10:56:43.397Z,20.96
2018-02-23T10:57:43.445Z,21.05
2018-02-23T10:58:43.849Z,21.05
2018-02-23T10:59:44.127Z,20.99
2018-02-23T11:00:44.404Z,20.99
2018-02-23T11:01:44.706Z,21.00
2018-02-23T11:02:45.086Z,21.02
2018-02-23T11:03:45.300Z,21.02
2018-02-23T11:04:45.568Z,21.03
2018-02-23T11:05:45.832Z,21.03
2018-02-23T11:06:46.094Z,20.99
2018-02-23T11:07:46.533Z,21.05
2018-02-23T11:08:46.820Z,21.05
2018-02-23T11:09:47.333Z,21.05
2018-02-23T11:10:47.381Z,21.12
2018-02-23T11:11:48.239Z,21.07
2018-02-23T11:12:48.810Z,21.03
2018-02-23T11:13:48.432Z,20.99
2018-02-23T11:14:48.466Z,21.06
2018-02-23T11:15:48.746Z,21.00
2018-02-23T11:16:49.019Z,21.07
2018-02-23T11:17:49.369Z,21.02
2018-02-23T11:18:49.759Z,21.06
2018-02-23T11:19:50.086Z,21.07
2018-02-23T11:20:50.147Z,21.03
2018-02-23T11:21:50.401Z,21.05
2018-02-23T11:22:50.683Z,21.02
2018-02-23T11:23:50.928Z,21.03
2018-02-23T11:24:51.193Z,21.06
2018-02-23T11:25:51.457Z,21.07
2018-02-23T11:26:51.721Z,20.99
2018-02-23T11:27:51.981Z,20.99
2018-02-23T11:28:52.245Z,21.05
2018-02-23T11:29:52.513Z,21.02
2018-02-23T11:30:52.770Z,21.05
2018-02-23T11:31:53.056Z,20.99
2018-02-23T11:32:53.321Z,21.09
2018-02-23T11:33:53.584Z,21.14
2018-02-23T11:34:53.858Z,21.02
2018-02-23T11:35:54.536Z,21.05
2018-02-23T11:36:54.562Z,21.06
2018-02-23T11:37:54.837Z,21.07
2018-02-23T11:38:55.101Z,21.05
2018-02-23T11:39:55.374Z,21.02
2018-02-23T11:40:56.106Z,21.03
2018-02-23T11:41:56.263Z,21.02
2018-02-23T11:42:56.299Z,21.02
2018-02-23T11:43:56.563Z,21.02
2018-02-23T11:44:56.827Z,21.05
2018-02-23T11:45:57.094Z,21.03
2018-02-23T11:46:57.736Z,21.02
2018-02-23T11:47:57.769Z,20.99
2018-02-23T11:48:58.036Z,21.03
2018-02-23T11:49:58.303Z,21.05
2018-02-23T11:50:58.569Z,21.09
2018-02-23T11:51:58.826Z,21.07
2018-02-23T11:52:59.098Z,21.11
2018-02-23T11:53:59.361Z,21.11
2018-02-23T11:54:59.631Z,21.12
2018-02-23T11:55:59.995Z,21.20
2018-02-23T11:57:00.150Z,21.15
2018-02-23T11:58:00.418Z,21.18
2018-02-23T11:59:00.683Z,21.15
2018-02-23T12:00:05.901Z,21.18
2018-02-23T12:01:01.363Z,21.20
2018-02-23T12:02:01.564Z,21.12
2018-02-23T12:03:01.856Z,21.21
2018-02-23T12:04:02.100Z,21.15
2018-02-23T12:05:02.374Z,21.15
2018-02-23T12:06:02.649Z,21.18
2018-02-23T12:07:02.937Z,21.18
2018-02-23T12:08:03.214Z,21.22
2018-02-23T12:09:03.476Z,21.15
2018-02-23T12:10:03.756Z,21.30
2018-02-23T12:11:04.021Z,21.22
2018-02-23T12:12:04.285Z,21.24
2018-02-23T12:13:04.553Z,21.21
2018-02-23T12:14:04.823Z,21.30
2018-02-23T12:15:05.089Z,21.24
2018-02-23T12:16:05.357Z,21.22
2018-02-23T12:17:05.634Z,21.30
2018-02-23T12:18:05.892Z,21.27
2018-02-23T12:19:06.157Z,21.33
2018-02-23T12:20:06.421Z,21.25
2018-02-23T12:21:06.706Z,21.29
2018-02-23T12:22:06.980Z,21.24
2018-02-23T12:23:07.247Z,21.32
2018-02-23T12:24:07.507Z,21.24
2018-02-23T12:25:07.775Z,21.27
2018-02-23T12:26:08.036Z,21.18
2018-02-23T12:27:08.304Z,21.25
2018-02-23T12:28:08.561Z,21.27
2018-02-23T12:29:08.835Z,21.25
2018-02-23T12:30:11.489Z,21.22
2018-02-23T12:31:09.450Z,21.27
2018-02-23T12:32:09.714Z,21.24
2018-02-23T12:33:09.980Z,21.27
2018-02-23T12:34:10.248Z,21.25
2018-02-23T12:35:10.514Z,21.24
2018-02-23T12:36:10.774Z,21.17
2018-02-23T12:37:11.042Z,21.17
2018-02-23T12:38:11.310Z,21.21
2018-02-23T12:39:11.571Z,21.15
2018-02-23T12:40:11.830Z,21.18
2018-02-23T12:41:12.095Z,21.18
2018-02-23T12:42:12.376Z,21.21
2018-02-23T12:43:12.649Z,21.18
2018-02-23T12:44:12.907Z,21.12
2018-02-23T12:45:13.177Z,21.09
2018-02-23T12:46:13.434Z,21.12
2018-02-23T12:47:13.698Z,21.14
2018-02-23T12:48:13.964Z,21.12
2018-02-23T12:49:14.228Z,21.12
2018-02-23T12:50:14.495Z,21.07
2018-02-23T12:51:14.756Z,21.11
2018-02-23T12:52:15.016Z,21.11
2018-02-23T12:53:15.277Z,21.12
2018-02-23T12:54:15.550Z,21.07
2018-02-23T12:55:15.816Z,21.11
2018-02-23T12:56:16.069Z,21.03
2018-02-23T12:57:16.334Z,21.09
2018-02-23T12:58:16.593Z,21.09
2018-02-23T12:59:16.860Z,21.06
2018-02-23T13:00:17.141Z,21.09